createdAt,value
2017-10-15T07:41:42.206Z,180.9
2017-10-15T07:42:42.326Z,180.9
2017-10-15T07:43:47.978Z,180.9
2017-10-15T07:44:47.150Z,180.9
2017-10-15T07:45:46.404Z,180.9
2017-10-15T07:46:50.141Z,180.9
2017-10-15T07:48:06.399Z,180.9
2017-10-15T07:49:53.268Z,180.9
2017-10-15T07:50:57.350Z,180.9
2017-10-15T07:51:51.985Z,180.9
2017-10-15T07:52:41.793Z,180.9
2017-10-15T07:53:42.315Z,180.9
2017-10-15T07:54:41.882Z,180.9
2017-10-15T07:55:42.540Z,180.9
2017-10-15T07:56:42.490Z,180.9
2017-10-15T07:59:04.926Z,180.9
2017-10-15T07:59:55.260Z,180.9
2017-10-15T08:01:05.277Z,180.9
2017-10-15T08:01:46.807Z,180.9
2017-10-15T08:03:22.590Z,180.9
2017-10-15T08:04:13.818Z,180.9
2017-10-15T08:04:50.663Z,180.9
2017-10-15T08:05:51.517Z,180.9
2017-10-15T08:06:45.921Z,180.9
2017-10-15T08:07:59.597Z,180.9
2017-10-15T08:08:41.829Z,180.9
2017-10-15T08:09:58.868Z,180.9
2017-10-15T08:10:44.993Z,180.9
2017-10-15T08:11:46.935Z,180.9
2017-10-15T08:12:41.903Z,180.9
2017-10-15T08:14:06.518Z,180.9
2017-10-15T08:15:04.147Z,180.9
2017-10-15T08:15:42.993Z,180.9
2017-10-15T08:16:50.984Z,180.9
2017-10-15T08:17:42.589Z,180.9
2017-10-15T08:18:51.769Z,180.9
2017-10-15T08:19:42.008Z,180.9
2017-10-15T08:20:50.522Z,180.9
2017-10-15T08:21:42.118Z,180.9
2017-10-15T08:22:43.308Z,180.9
2017-10-15T08:23:47.873Z,180.9
2017-10-15T08:24:46.377Z,180.9
2017-10-15T08:25:48.870Z,180.9
2017-10-15T08:27:42.432Z,180.9
2017-10-15T08:28:46.675Z,180.9
2017-10-15T08:29:41.874Z,180.9
2017-10-15T08:30:41.895Z,180.9
2017-10-15T08:31:42.470Z,180.9
2017-10-15T08:32:41.974Z,180.9
2017-10-15T08:33:42.068Z,180.9
2017-10-15T08:34:41.922Z,180.9
2017-10-15T08:36:01.291Z,180.9
2017-10-15T08:36:47.739Z,180.9
2017-10-15T08:37:42.529Z,180.9
2017-10-15T08:38:41.933Z,180.9
2017-10-15T08:39:41.875Z,180.9
2017-10-15T08:40:42.465Z,180.9
2017-10-15T08:41:41.911Z,180.9
2017-10-15T08:42:41.922Z,180.9
2017-10-15T08:43:41.909Z,180.9
2017-10-15T08:44:41.883Z,180.9
2017-10-15T08:45:42.832Z,180.9
2017-10-15T08:46:41.882Z,180.9
2017-10-15T08:47:41.951Z,180.9
2017-10-15T08:48:52.860Z,180.9
2017-10-15T08:49:47.432Z,180.9
2017-10-15T08:50:47.524Z,180.9
2017-10-15T08:51:53.876Z,180.9
2017-10-15T08:52:41.889Z,180.9
2017-10-15T08:53:42.596Z,180.9
2017-10-15T08:54:41.842Z,180.9
2017-10-15T08:55:41.910Z,180.9
2017-10-15T08:56:41.933Z,180.9
2017-10-15T08:57:41.875Z,180.9
2017-10-15T08:58:41.993Z,180.9
2017-10-15T08:59:41.884Z,180.9
2017-10-15T09:00:41.891Z,180.9
2017-10-15T09:01:41.888Z,180.9
2017-10-15T09:02:41.906Z,180.9
2017-10-15T09:03:41.923Z,180.9
2017-10-15T09:04:41.899Z,180.9
2017-10-15T09:05:41.864Z,180.9
2017-10-15T09:06:41.875Z,180.9
2017-10-15T09:07:41.905Z,180.9
2017-10-15T09:08:41.924Z,180.9
2017-10-15T09:09:41.875Z,180.9
2017-10-15T09:10:41.885Z,180.9
2017-10-15T09:11:41.893Z,180.9
2017-10-15T09:12:41.941Z,180.9
2017-10-15T09:13:41.948Z,180.9
2017-10-15T09:14:41.912Z,180.9
2017-10-15T09:15:41.884Z,180.9
2017-10-15T09:16:41.882Z,180.9
2017-10-15T09:17:41.892Z,180.9
2017-10-15T09:18:41.934Z,180.9
2017-10-15T09:19:41.852Z,180.9
2017-10-15T09:20:41.999Z,180.9
2017-10-15T09:21:41.900Z,180.9
2017-10-15T09:22:41.862Z,180.9
2017-10-15T09:23:41.976Z,180.9
2017-10-15T09:24:41.930Z,180.9
2017-10-15T09:25:41.913Z,180.9
2017-10-15T09:26:42.015Z,180.9
2017-10-15T09:27:41.974Z,180.9
2017-10-15T09:28:41.944Z,180.9
2017-10-15T09:29:41.871Z,180.9
2017-10-15T09:30:41.893Z,180.9
2017-10-15T09:31:41.891Z,180.9
2017-10-15T09:32:41.912Z,180.9
2017-10-15T09:33:41.930Z,180.9
2017-10-15T09:34:41.869Z,180.9
2017-10-15T09:35:41.876Z,180.9
2017-10-15T09:36:41.889Z,180.9
2017-10-15T09:37:41.903Z,180.9
2017-10-15T09:38:41.948Z,180.9
2017-10-15T09:39:41.945Z,180.9
2017-10-15T09:40:41.885Z,180.9
2017-10-15T09:41:41.885Z,180.9
2017-10-15T09:42:41.899Z,180.9
2017-10-15T09:43:41.964Z,180.9
2017-10-15T09:44:41.871Z,180.9
2017-10-15T09:45:41.899Z,180.9
2017-10-15T09:46:41.892Z,180.9
2017-10-15T09:47:41.911Z,180.9
2017-10-15T09:48:41.970Z,180.9
2017-10-15T09:49:41.816Z,180.9
2017-10-15T09:50:41.855Z,180.9
2017-10-15T09:51:41.876Z,180.9
2017-10-15T09:52:41.881Z,180.9
2017-10-15T09:53:41.913Z,180.9
2017-10-15T09:54:41.872Z,180.9
2017-10-15T09:55:41.857Z,180.9
2017-10-15T09:56:41.881Z,180.9
2017-10-15T09:57:41.965Z,180.9
2017-10-15T09:58:41.994Z,180.9
2017-10-15T09:59:41.894Z,180.9
2017-10-15T10:00:41.866Z,180.9
2017-10-15T10:01:41.965Z,180.9
2017-10-15T10:02:41.947Z,180.9
2017-10-15T10:03:42.000Z,180.9
2017-10-15T10:04:41.880Z,180.9
2017-10-15T10:05:41.923Z,180.9
2017-10-15T10:06:41.911Z,180.9
2017-10-15T10:07:41.884Z,180.9
2017-10-15T10:08:41.933Z,180.9
2017-10-15T10:09:41.918Z,180.9
2017-10-15T10:10:41.954Z,180.9
2017-10-15T10:11:41.879Z,180.9
2017-10-15T10:12:42.154Z,180.9
2017-10-15T10:13:42.019Z,180.9
2017-10-15T10:14:41.882Z,180.9
2017-10-15T10:15:41.960Z,180.9
2017-10-15T10:16:41.976Z,180.9
2017-10-15T10:17:41.896Z,180.9
2017-10-15T10:18:42.021Z,180.9
2017-10-15T10:19:42.230Z,180.9
2017-10-15T10:20:42.049Z,180.9
2017-10-15T10:21:42.073Z,180.9
2017-10-15T10:22:42.173Z,180.9
2017-10-15T10:23:41.990Z,180.9
2017-10-15T10:24:42.619Z,180.9
2017-10-15T10:25:43.252Z,180.9
2017-10-15T10:26:42.059Z,180.9
2017-10-15T10:27:42.131Z,180.9
2017-10-15T10:28:41.975Z,180.9
2017-10-15T10:29:42.226Z,180.9
2017-10-15T10:30:42.110Z,180.9
2017-10-15T10:31:41.902Z,180.9
2017-10-15T10:32:42.293Z,180.9
2017-10-15T10:33:43.452Z,180.9
2017-10-15T10:34:44.270Z,180.9
2017-10-15T10:35:43.469Z,180.9
2017-10-15T10:36:42.277Z,180.9
2017-10-15T10:37:43.841Z,180.9
2017-10-15T10:38:43.345Z,180.9
2017-10-15T10:39:42.182Z,180.9
2017-10-15T10:40:42.627Z,180.9
2017-10-15T10:41:52.814Z,180.9
2017-10-15T10:42:42.164Z,180.9
2017-10-15T10:43:42.160Z,180.9
2017-10-15T10:44:42.850Z,180.9
2017-10-15T10:45:41.900Z,180.9
2017-10-15T10:46:43.031Z,180.9
2017-10-15T10:47:42.184Z,180.9
2017-10-15T10:48:42.405Z,180.9
2017-10-15T10:49:42.128Z,180.9
2017-10-15T10:50:42.116Z,180.9
2017-10-15T10:51:42.754Z,180.9
2017-10-15T10:52:42.003Z,180.9
2017-10-15T10:53:41.989Z,180.9
2017-10-15T10:54:41.980Z,180.9
2017-10-15T10:55:41.924Z,180.9
2017-10-15T10:56:42.136Z,180.9
2017-10-15T10:57:41.958Z,180.9
2017-10-15T10:58:41.933Z,180.9
2017-10-15T10:59:41.945Z,180.9
2017-10-15T11:00:42.555Z,180.9
2017-10-15T11:01:42.027Z,180.9
2017-10-15T11:02:41.862Z,180.9
2017-10-15T11:03:42.116Z,180.9
2017-10-15T11:04:42.117Z,180.9
2017-10-15T11:05:41.970Z,180.9
2017-10-15T11:06:41.940Z,180.9
2017-10-15T11:07:42.030Z,180.9
2017-10-15T11:08:41.944Z,180.9
2017-10-15T11:09:42.230Z,180.9
2017-10-15T11:10:42.125Z,180.9
2017-10-15T11:11:41.924Z,180.9
2017-10-15T11:12:41.944Z,180.9
2017-10-15T11:13:41.930Z,180.9
2017-10-15T11:14:41.989Z,180.9
2017-10-15T11:15:42.003Z,180.9
2017-10-15T11:16:42.002Z,180.9
2017-10-15T11:17:42.749Z,180.9
2017-10-15T11:18:41.879Z,180.9
2017-10-15T11:19:41.930Z,180.9
2017-10-15T11:20:42.316Z,180.9
2017-10-15T11:21:41.962Z,180.9
2017-10-15T11:22:42.010Z,180.9
2017-10-15T11:23:41.949Z,180.9
2017-10-15T11:24:41.839Z,180.9
2017-10-15T11:25:42.106Z,180.9
2017-10-15T11:26:41.907Z,180.9
2017-10-15T11:27:41.952Z,180.9
2017-10-15T11:28:41.944Z,180.9
2017-10-15T11:29:41.956Z,180.9
2017-10-15T11:30:42.025Z,180.9
2017-10-15T11:31:41.971Z,180.9
2017-10-15T11:32:41.865Z,180.9
2017-10-15T11:33:41.932Z,180.9
2017-10-15T11:34:42.059Z,180.9
2017-10-15T11:35:42.017Z,180.9
2017-10-15T11:36:42.003Z,180.9
2017-10-15T11:37:42.494Z,180.9
2017-10-15T11:38:41.874Z,180.9
2017-10-15T11:39:41.814Z,180.9
2017-10-15T11:40:44.624Z,180.9
2017-10-15T11:41:42.455Z,180.9
2017-10-15T11:42:42.322Z,180.9
2017-10-15T11:43:42.522Z,180.9
2017-10-15T11:44:42.490Z,180.9
2017-10-15T11:45:42.423Z,180.9
2017-10-15T11:46:42.499Z,180.9
2017-10-15T11:47:42.545Z,180.9
2017-10-15T11:48:42.469Z,180.9
2017-10-15T11:49:42.325Z,180.9
2017-10-15T11:50:42.679Z,180.9
2017-10-15T11:51:42.478Z,180.9
2017-10-15T11:52:42.474Z,180.9
2017-10-15T11:53:42.355Z,180.9
2017-10-15T11:54:42.680Z,180.9
2017-10-15T11:55:42.602Z,180.9
2017-10-15T11:56:42.381Z,180.9
2017-10-15T11:57:42.466Z,180.9
2017-10-15T11:58:42.338Z,180.9
2017-10-15T11:59:42.553Z,180.9
2017-10-15T12:00:42.445Z,180.9
2017-10-15T12:01:42.262Z,180.9
2017-10-15T12:02:42.483Z,180.9
2017-10-15T12:03:42.493Z,180.9
2017-10-15T12:04:42.569Z,180.9
2017-10-15T12:05:42.438Z,180.9
2017-10-15T12:06:42.357Z,180.9
2017-10-15T12:07:42.392Z,180.9
2017-10-15T12:08:44.045Z,180.9
2017-10-15T12:10:16.044Z,180.9
2017-10-15T12:10:42.462Z,180.9
2017-10-15T12:11:42.309Z,180.9
2017-10-15T12:12:42.493Z,180.9
2017-10-15T12:13:42.458Z,180.9
2017-10-15T12:14:42.372Z,180.9
2017-10-15T12:15:42.497Z,180.9
2017-10-15T12:16:42.400Z,180.9
2017-10-15T12:17:42.523Z,180.9
2017-10-15T12:18:42.490Z,180.9
2017-10-15T12:19:42.595Z,180.9
2017-10-15T12:20:42.506Z,180.9
2017-10-15T12:21:42.381Z,180.9
2017-10-15T12:22:42.489Z,180.9
2017-10-15T12:23:41.990Z,180.9
2017-10-15T12:24:42.545Z,180.9
2017-10-15T12:25:44.499Z,180.9
2017-10-15T12:26:42.615Z,180.9
2017-10-15T12:27:41.918Z,180.9
2017-10-15T12:28:47.062Z,180.9
2017-10-15T12:29:41.952Z,180.9
2017-10-15T12:30:41.854Z,180.9
2017-10-15T12:31:44.322Z,180.9
2017-10-15T12:32:42.407Z,180.9
2017-10-15T12:33:42.579Z,180.9
2017-10-15T12:34:42.683Z,180.9
2017-10-15T12:35:42.410Z,180.9
2017-10-15T12:36:42.394Z,180.9
2017-10-15T12:37:42.425Z,180.9
2017-10-15T12:38:42.329Z,180.9
2017-10-15T12:39:42.570Z,180.9
2017-10-15T12:40:42.274Z,180.9
2017-10-15T12:41:42.389Z,180.9
2017-10-15T12:42:42.449Z,180.9
2017-10-15T12:43:42.469Z,180.9
2017-10-15T12:44:42.519Z,180.9
2017-10-15T12:45:50.128Z,180.9
2017-10-15T12:46:42.415Z,180.9
2017-10-15T12:47:44.833Z,180.9
2017-10-15T12:48:42.482Z,180.9
2017-10-15T12:49:42.446Z,180.9
2017-10-15T12:50:42.901Z,180.9
2017-10-15T12:51:42.424Z,180.9
2017-10-15T12:52:42.449Z,180.9
2017-10-15T12:53:41.831Z,180.9
2017-10-15T12:54:41.930Z,180.9
2017-10-15T12:55:41.936Z,180.9
2017-10-15T12:56:42.129Z,180.9
2017-10-15T12:57:42.047Z,180.9
2017-10-15T12:58:45.021Z,180.9
2017-10-15T12:59:41.843Z,180.9
2017-10-15T13:00:42.934Z,180.9
2017-10-15T13:01:41.972Z,180.9
2017-10-15T13:02:41.846Z,180.9
2017-10-15T13:03:41.859Z,180.9
2017-10-15T13:04:41.857Z,180.9
2017-10-15T13:05:41.936Z,180.9
2017-10-15T13:06:41.907Z,180.9
2017-10-15T13:07:41.990Z,180.9
2017-10-15T13:08:41.904Z,180.9
2017-10-15T13:09:41.889Z,180.9
2017-10-15T13:10:41.893Z,180.9
2017-10-15T13:11:41.930Z,180.9
2017-10-15T13:12:42.029Z,180.9
2017-10-15T13:13:41.820Z,180.9
2017-10-15T13:14:41.905Z,180.9
2017-10-15T13:15:41.872Z,180.9
2017-10-15T13:16:41.851Z,180.9
2017-10-15T13:17:42.000Z,180.9
2017-10-15T13:18:41.856Z,180.9
2017-10-15T13:19:41.896Z,180.9
2017-10-15T13:20:41.886Z,180.9
2017-10-15T13:21:41.902Z,180.9
2017-10-15T13:22:41.993Z,180.9
2017-10-15T13:23:41.858Z,180.9
2017-10-15T13:24:41.896Z,180.9
2017-10-15T13:25:41.833Z,180.9
2017-10-15T13:26:41.863Z,180.9
2017-10-15T13:27:41.916Z,180.9
2017-10-15T13:28:41.866Z,180.9
2017-10-15T13:29:41.856Z,180.9
2017-10-15T13:30:41.886Z,180.9
2017-10-15T13:31:41.877Z,180.9
2017-10-15T13:32:41.993Z,180.9
2017-10-15T13:33:41.843Z,180.9
2017-10-15T13:34:41.907Z,180.9
2017-10-15T13:35:42.007Z,180.9
2017-10-15T13:36:41.865Z,180.9
2017-10-15T13:37:42.029Z,180.9
2017-10-15T13:38:41.893Z,180.9
2017-10-15T13:39:41.835Z,180.9
2017-10-15T13:40:41.981Z,180.9
2017-10-15T13:41:41.875Z,180.9
2017-10-15T13:42:41.946Z,180.9
2017-10-15T13:43:41.960Z,180.9
2017-10-15T13:44:41.896Z,180.9
2017-10-15T13:45:41.909Z,180.9
2017-10-15T13:46:41.848Z,180.9
2017-10-15T13:47:41.875Z,180.9
2017-10-15T13:48:41.925Z,180.9
2017-10-15T13:49:41.913Z,180.9
2017-10-15T13:50:41.835Z,180.9
2017-10-15T13:51:41.843Z,180.9
2017-10-15T13:52:41.851Z,180.9
2017-10-15T13:53:41.957Z,180.9
2017-10-15T13:54:41.910Z,180.9
2017-10-15T13:55:41.880Z,180.9
2017-10-15T13:56:41.953Z,180.9
2017-10-15T13:57:41.983Z,180.9
2017-10-15T13:58:42.048Z,180.9
2017-10-15T13:59:41.896Z,180.9
2017-10-15T14:00:41.908Z,180.9
2017-10-15T14:01:41.897Z,180.9
2017-10-15T14:02:42.094Z,180.9
2017-10-15T14:03:42.270Z,180.9
2017-10-15T14:04:41.988Z,180.9
2017-10-15T14:05:42.208Z,180.9
2017-10-15T14:06:41.849Z,180.9
2017-10-15T14:07:41.861Z,180.9
2017-10-15T14:08:41.945Z,180.9
2017-10-15T14:09:41.873Z,180.9
2017-10-15T14:10:41.843Z,180.9
2017-10-15T14:11:41.893Z,180.9
2017-10-15T14:12:41.801Z,180.9
2017-10-15T14:13:41.955Z,180.9
2017-10-15T14:14:41.922Z,180.9
2017-10-15T14:15:41.914Z,180.9
2017-10-15T14:16:41.890Z,180.9
2017-10-15T14:17:42.810Z,180.9
2017-10-15T14:18:44.972Z,180.9
2017-10-15T14:19:41.951Z,180.9
2017-10-15T14:20:41.940Z,180.9
2017-10-15T14:21:42.044Z,180.9
2017-10-15T14:22:41.916Z,180.9
2017-10-15T14:23:41.981Z,180.9
2017-10-15T14:24:42.882Z,180.9
2017-10-15T14:25:41.944Z,180.9
2017-10-15T14:26:41.868Z,180.9
2017-10-15T14:27:41.785Z,180.9
2017-10-15T14:28:41.996Z,180.9
2017-10-15T14:29:41.879Z,180.9
2017-10-15T14:30:41.898Z,180.9
2017-10-15T14:31:41.934Z,180.9
2017-10-15T14:32:41.850Z,180.9
2017-10-15T14:33:41.920Z,180.9
2017-10-15T14:34:41.895Z,180.9
2017-10-15T14:35:41.863Z,180.9
2017-10-15T14:36:41.900Z,180.9
2017-10-15T14:37:41.857Z,180.9
2017-10-15T14:38:43.584Z,180.9
2017-10-15T14:39:43.937Z,180.9
2017-10-15T14:40:41.919Z,180.9
2017-10-15T14:41:41.876Z,180.9
2017-10-15T14:42:42.863Z,180.9
2017-10-15T14:43:42.477Z,180.9
2017-10-15T14:44:42.116Z,180.9
2017-10-15T14:45:42.831Z,180.9
2017-10-15T14:46:41.814Z,180.9
2017-10-15T14:47:41.859Z,180.9
2017-10-15T14:48:42.177Z,180.9
2017-10-15T14:49:44.502Z,180.9
2017-10-15T14:50:41.882Z,180.9
2017-10-15T14:51:42.018Z,180.9
2017-10-15T14:52:41.888Z,180.9
2017-10-15T14:53:42.027Z,180.9
2017-10-15T14:54:41.943Z,180.9
2017-10-15T14:55:41.936Z,180.9
2017-10-15T14:56:41.902Z,180.9
2017-10-15T14:57:41.843Z,180.9
2017-10-15T14:58:42.007Z,180.9
2017-10-15T14:59:42.017Z,180.9
2017-10-15T15:00:41.924Z,180.9
2017-10-15T15:01:41.869Z,180.9
2017-10-15T15:02:41.965Z,180.9
2017-10-15T15:03:41.901Z,180.9
2017-10-15T15:04:42.097Z,180.9
2017-10-15T15:05:41.904Z,180.9
2017-10-15T15:06:41.844Z,180.9
2017-10-15T15:07:41.939Z,180.9
2017-10-15T15:08:41.861Z,180.9
2017-10-15T15:09:42.004Z,180.9
2017-10-15T15:10:41.862Z,180.9
2017-10-15T15:11:41.868Z,180.9
2017-10-15T15:12:41.861Z,180.9
2017-10-15T15:13:41.930Z,180.9
2017-10-15T15:14:42.199Z,180.9
2017-10-15T15:15:42.276Z,180.9
2017-10-15T15:16:41.869Z,180.9
2017-10-15T15:17:41.863Z,180.9
2017-10-15T15:18:41.975Z,180.9
2017-10-15T15:19:42.101Z,180.9
2017-10-15T15:20:42.089Z,180.9
2017-10-15T15:21:41.883Z,180.9
2017-10-15T15:22:41.924Z,180.9
2017-10-15T15:23:41.852Z,180.9
2017-10-15T15:24:41.946Z,180.9
2017-10-15T15:25:41.914Z,180.9
2017-10-15T15:26:41.941Z,180.9
2017-10-15T15:27:41.899Z,180.9
2017-10-15T15:28:41.833Z,180.9
2017-10-15T15:29:42.090Z,180.9
2017-10-15T15:30:43.661Z,180.9
2017-10-15T15:31:43.149Z,180.9
2017-10-15T15:32:47.636Z,180.9
2017-10-15T15:33:43.229Z,180.9
2017-10-15T15:34:41.979Z,180.9
2017-10-15T15:35:42.281Z,180.9
2017-10-15T15:36:42.853Z,180.9
2017-10-15T15:37:48.468Z,180.9
2017-10-15T15:39:12.505Z,180.9
2017-10-15T15:40:16.329Z,180.9
2017-10-15T15:40:42.838Z,180.9
2017-10-15T15:41:41.855Z,180.9
2017-10-15T15:42:41.843Z,180.9
2017-10-15T15:43:41.886Z,180.9
2017-10-15T15:44:42.025Z,180.9
2017-10-15T15:45:42.500Z,180.9
2017-10-15T15:46:42.009Z,180.9
2017-10-15T15:47:41.912Z,180.9
2017-10-15T15:48:41.900Z,180.9
2017-10-15T15:49:41.820Z,180.9
2017-10-15T15:50:41.829Z,180.9
2017-10-15T15:51:41.894Z,180.9
2017-10-15T15:52:41.858Z,180.9
2017-10-15T15:53:41.907Z,180.9
2017-10-15T15:54:41.950Z,180.9
2017-10-15T15:55:43.407Z,180.9
2017-10-15T15:56:42.236Z,180.9
2017-10-15T15:57:42.440Z,180.9
2017-10-15T15:58:41.887Z,180.9
2017-10-15T15:59:41.886Z,180.9
2017-10-15T16:00:42.207Z,180.9
2017-10-15T16:01:42.596Z,180.9
2017-10-15T16:02:42.260Z,180.9
2017-10-15T16:03:42.038Z,180.9
2017-10-15T16:04:43.978Z,180.9
2017-10-15T16:05:43.814Z,180.9
2017-10-15T16:06:42.308Z,180.9
2017-10-15T16:07:44.487Z,180.9
2017-10-15T16:08:42.298Z,180.9
2017-10-15T16:09:49.473Z,180.9
2017-10-15T16:10:53.214Z,180.9
2017-10-15T16:11:41.980Z,180.9
2017-10-15T16:12:47.624Z,180.9
2017-10-15T16:13:46.024Z,180.9
2017-10-15T16:14:46.601Z,180.9
2017-10-15T16:15:51.139Z,180.9
2017-10-15T16:16:53.036Z,180.9
2017-10-15T16:17:45.104Z,180.9
2017-10-15T16:18:48.206Z,180.9
2017-10-15T16:19:48.546Z,180.9
2017-10-15T16:20:54.144Z,180.9
2017-10-15T16:21:47.672Z,180.9
2017-10-15T16:22:51.577Z,180.9
2017-10-15T16:23:41.815Z,180.9
2017-10-15T16:24:41.872Z,180.9
2017-10-15T16:25:41.946Z,180.9
2017-10-15T16:26:41.857Z,180.9
2017-10-15T16:27:41.913Z,180.9
2017-10-15T16:28:42.880Z,180.9
2017-10-15T16:29:41.849Z,180.9
2017-10-15T16:30:41.840Z,180.9
2017-10-15T16:31:41.871Z,180.9
2017-10-15T16:32:41.927Z,180.9
2017-10-15T16:33:41.864Z,180.9
2017-10-15T16:34:41.844Z,180.9
2017-10-15T16:35:41.882Z,180.9
2017-10-15T16:36:41.843Z,180.9
2017-10-15T16:37:41.943Z,180.9
2017-10-15T16:38:41.857Z,180.9
2017-10-15T16:39:41.918Z,180.9
2017-10-15T16:40:41.848Z,180.9
2017-10-15T16:41:41.853Z,180.9
2017-10-15T16:42:41.925Z,180.9
2017-10-15T16:43:41.849Z,180.9
2017-10-15T16:44:41.868Z,180.9
2017-10-15T16:45:41.866Z,180.9
2017-10-15T16:46:41.853Z,180.9
2017-10-15T16:47:41.929Z,180.9
2017-10-15T16:48:41.856Z,180.9
2017-10-15T16:49:41.851Z,180.9
2017-10-15T16:50:41.883Z,180.9
2017-10-15T16:51:41.874Z,180.9
2017-10-15T16:52:41.960Z,180.9
2017-10-15T16:53:41.827Z,180.9
2017-10-15T16:54:41.873Z,180.9
2017-10-15T16:55:41.893Z,180.9
2017-10-15T16:56:41.887Z,180.9
2017-10-15T16:57:47.969Z,180.9
2017-10-15T16:58:41.887Z,180.9
2017-10-15T16:59:41.805Z,180.9
2017-10-15T17:00:42.431Z,180.9
2017-10-15T17:01:42.087Z,180.9
2017-10-15T17:02:42.403Z,180.9
2017-10-15T17:03:42.217Z,180.9
2017-10-15T17:04:42.132Z,180.9
2017-10-15T17:05:42.065Z,180.9
2017-10-15T17:06:42.140Z,180.9
2017-10-15T17:07:42.076Z,180.9
2017-10-15T17:08:41.896Z,180.9
2017-10-15T17:09:41.864Z,180.9
2017-10-15T17:10:41.881Z,180.9
2017-10-15T17:11:41.866Z,180.9
2017-10-15T17:12:41.794Z,180.9
2017-10-15T17:13:41.957Z,180.9
2017-10-15T17:14:43.504Z,180.9
2017-10-15T17:15:41.843Z,180.9
2017-10-15T17:16:42.016Z,180.9
2017-10-15T17:18:51.452Z,180.9
2017-10-15T17:19:42.533Z,180.9
2017-10-15T17:20:45.688Z,180.9
2017-10-15T17:22:45.118Z,180.9
2017-10-15T17:23:51.661Z,180.9
2017-10-15T17:24:49.044Z,180.9
2017-10-15T17:25:46.212Z,180.9
2017-10-15T17:26:51.157Z,180.9
2017-10-15T17:29:41.445Z,180.9
2017-10-15T17:30:44.444Z,180.9
2017-10-15T17:32:44.577Z,180.9
2017-10-15T17:33:43.069Z,180.9
2017-10-15T17:34:41.133Z,180.9
2017-10-15T17:35:39.805Z,180.9
2017-10-15T17:36:39.679Z,180.9
2017-10-15T17:37:39.770Z,180.9
2017-10-15T17:38:40.994Z,180.9
2017-10-15T17:39:41.190Z,180.9
2017-10-15T17:40:43.480Z,180.9
2017-10-15T17:41:41.916Z,180.9
2017-10-15T17:43:38.302Z,22.5
2017-10-15T17:50:15.823Z,90
2017-10-15T17:51:16.757Z,137.5
2017-10-15T17:52:15.825Z,166.4
2017-10-15T17:53:15.445Z,174.6
2017-10-15T17:54:17.890Z,177.7
2017-10-15T17:55:17.012Z,178.9
2017-10-15T17:56:15.463Z,179.5
2017-10-15T17:57:20.625Z,179.8
2017-10-15T18:08:22.776Z,88
2017-10-15T18:09:22.796Z,58
2017-10-15T18:10:22.823Z,50.1
2017-10-15T18:11:25.295Z,48.4
2017-10-15T18:12:23.419Z,46.5
2017-10-15T18:13:27.488Z,45.7
2017-10-15T18:14:23.461Z,45.3
2017-10-15T18:15:23.316Z,45.2
2017-10-15T18:16:25.946Z,7.9
2017-10-15T18:17:26.114Z,343
2017-10-15T18:18:23.461Z,339.6
2017-10-15T18:19:26.482Z,338.4
2017-10-15T18:20:27.401Z,337.9
2017-10-15T18:21:25.727Z,337.7
2017-10-15T18:22:26.719Z,337.6
2017-10-15T18:23:23.686Z,337.5
2017-10-15T18:24:22.754Z,337.5
2017-10-15T18:25:22.710Z,337.5
2017-10-15T18:26:22.772Z,337.5
2017-10-15T18:27:28.703Z,337.5
2017-10-15T18:28:24.447Z,337.5
2017-10-15T18:29:23.358Z,318.4
2017-10-15T18:30:28.116Z,290.6
2017-10-15T18:31:23.463Z,278.8
2017-10-15T18:32:25.884Z,273.9
2017-10-15T18:33:27.356Z,271.8
2017-10-15T18:34:25.294Z,270.8
2017-10-15T18:35:28.143Z,270.4
2017-10-15T18:36:23.648Z,270.2
2017-10-15T18:37:24.550Z,270.1
2017-10-15T18:38:24.325Z,270
2017-10-15T18:39:23.486Z,270
2017-10-15T18:40:23.475Z,270
2017-10-15T18:41:26.585Z,270
2017-10-15T18:42:23.374Z,269.7
2017-10-15T18:43:23.308Z,269.9
2017-10-15T18:44:23.260Z,269.9
2017-10-15T18:45:23.435Z,270
2017-10-15T18:46:25.696Z,270
2017-10-15T18:47:23.494Z,270
2017-10-15T18:48:23.312Z,288.3
2017-10-15T18:49:22.719Z,283
2017-10-15T18:50:26.516Z,300.6
2017-10-15T18:51:23.261Z,308.5
2017-10-15T18:52:25.350Z,313.1
2017-10-15T18:53:28.912Z,338.5
2017-10-15T18:54:25.208Z,350.5
2017-10-15T18:55:23.502Z,355.7
2017-10-15T18:56:26.344Z,358
2017-10-15T18:57:29.115Z,359.1
2017-10-15T18:58:22.747Z,359.6
2017-10-15T18:59:22.781Z,359.8
2017-10-15T19:00:22.864Z,359.9
2017-10-15T19:01:22.782Z,360
2017-10-15T19:02:27.442Z,360
2017-10-15T19:03:23.366Z,360
2017-10-15T19:04:23.265Z,360
2017-10-15T19:05:25.683Z,360
2017-10-15T19:06:23.200Z,360
2017-10-15T19:07:25.693Z,360
2017-10-15T19:08:29.041Z,360
2017-10-15T19:09:29.348Z,360
2017-10-15T19:10:23.323Z,360
2017-10-15T19:11:25.563Z,360
2017-10-15T19:12:23.423Z,360
2017-10-15T19:13:23.466Z,360
2017-10-15T19:14:23.686Z,360
2017-10-15T19:15:24.399Z,360
2017-10-15T19:16:25.540Z,360
2017-10-15T19:17:24.457Z,360
2017-10-15T19:18:25.178Z,360
2017-10-15T19:19:23.354Z,360
2017-10-15T19:20:23.519Z,360
2017-10-15T19:21:23.321Z,360
2017-10-15T19:22:25.523Z,360
2017-10-15T19:23:25.259Z,360
2017-10-15T19:24:23.296Z,360
2017-10-15T19:25:23.442Z,360
2017-10-15T19:26:23.322Z,360
2017-10-15T19:27:23.265Z,360
2017-10-15T19:28:24.453Z,360
2017-10-15T19:29:23.153Z,360
2017-10-15T19:30:23.404Z,360
2017-10-15T19:31:23.241Z,360
2017-10-15T19:32:24.173Z,360
2017-10-15T19:33:23.422Z,360
2017-10-15T19:34:25.044Z,360
2017-10-15T19:35:23.121Z,360
2017-10-15T19:36:24.303Z,360
2017-10-15T19:37:23.534Z,360
2017-10-15T19:38:23.340Z,360
2017-10-15T19:39:26.183Z,360
2017-10-15T19:40:23.532Z,360
2017-10-15T19:41:25.513Z,360
2017-10-15T19:42:23.181Z,360
2017-10-15T19:43:23.360Z,360
2017-10-15T19:44:23.407Z,360
2017-10-15T19:45:25.418Z,360
2017-10-15T19:46:23.100Z,360
2017-10-15T19:47:23.445Z,360
2017-10-15T19:48:24.738Z,360
2017-10-15T19:49:24.329Z,360
2017-10-15T19:50:26.017Z,360
2017-10-15T19:51:25.479Z,360
2017-10-15T19:52:22.750Z,360
2017-10-15T19:53:28.724Z,360
2017-10-15T19:54:23.374Z,360
2017-10-15T19:55:25.703Z,360
2017-10-15T19:56:23.090Z,360
2017-10-15T19:57:23.837Z,360
2017-10-15T19:58:24.922Z,360
2017-10-15T19:59:25.545Z,360
2017-10-15T20:00:23.584Z,360
2017-10-15T20:01:30.430Z,360
2017-10-15T20:02:23.434Z,360
2017-10-15T20:03:23.700Z,360
2017-10-15T20:04:23.133Z,360
2017-10-15T20:05:23.294Z,360
2017-10-15T20:06:23.370Z,360
2017-10-15T20:07:23.275Z,360
2017-10-15T20:08:23.585Z,360
2017-10-15T20:09:23.239Z,360
2017-10-15T20:10:23.471Z,360
2017-10-15T20:11:25.021Z,360
2017-10-15T20:12:23.392Z,360
2017-10-15T20:13:23.180Z,360
2017-10-15T20:14:23.584Z,360
2017-10-15T20:15:23.203Z,360
2017-10-15T20:16:23.183Z,360
2017-10-15T20:17:23.268Z,360
2017-10-15T20:18:22.895Z,360
2017-10-15T20:19:22.714Z,360
2017-10-15T20:20:22.732Z,360
2017-10-15T20:21:22.723Z,360
2017-10-15T20:22:22.714Z,360
2017-10-15T20:23:22.788Z,360
2017-10-15T20:24:22.765Z,360
2017-10-15T20:25:22.705Z,360
2017-10-15T20:26:22.768Z,360
2017-10-15T20:27:22.725Z,360
2017-10-15T20:28:22.789Z,360
2017-10-15T20:29:22.711Z,360
2017-10-15T20:30:22.724Z,360
2017-10-15T20:31:22.762Z,360
2017-10-15T20:32:22.720Z,360
2017-10-15T20:33:22.838Z,360
2017-10-15T20:34:22.709Z,351.6
2017-10-15T20:35:22.764Z,330.6
2017-10-15T20:36:22.736Z,321.8
2017-10-15T20:37:22.761Z,318.1
2017-10-15T20:38:22.800Z,316.4
2017-10-15T20:39:22.742Z,315.7
2017-10-15T20:40:22.712Z,315.3
2017-10-15T20:41:22.710Z,315.1
2017-10-15T20:42:22.721Z,315.1
2017-10-15T20:43:22.771Z,315
2017-10-15T20:44:22.750Z,315
2017-10-15T20:45:22.715Z,315
2017-10-15T20:46:22.739Z,315
2017-10-15T20:47:22.731Z,315
2017-10-15T20:48:22.770Z,315
2017-10-15T20:49:22.708Z,315
2017-10-15T20:50:22.707Z,315
2017-10-15T20:51:22.730Z,315
2017-10-15T20:52:22.694Z,315
2017-10-15T20:53:22.801Z,315
2017-10-15T20:54:22.691Z,315
2017-10-15T20:55:22.726Z,315
2017-10-15T20:56:22.740Z,315
2017-10-15T20:57:22.735Z,315
2017-10-15T20:58:22.808Z,315
2017-10-15T20:59:22.717Z,315
2017-10-15T21:00:22.733Z,315
2017-10-15T21:01:22.726Z,315
2017-10-15T21:02:22.737Z,315
2017-10-15T21:07:45.049Z,315
2017-10-15T21:08:22.706Z,315
2017-10-15T21:09:22.786Z,315
2017-10-15T21:10:22.698Z,334.4
2017-10-15T21:11:22.752Z,348.5